Home > Products > Valid Products > MTR

000
SAUS44 KLZK 070754
MTRMWT
METAR KMWT 070753Z AUTO 00000KT 10SM CLR M03/M06 A3023 RMK AO2
SLP245 T10281061





000
SAUS44 KLZK 070654
MTRMWT
METAR KMWT 070653Z AUTO 00000KT 10SM CLR M03/M05 A3023 RMK AO2
SLP246 T10281050





000
SAUS44 KLZK 070654
MTRMWT
METAR KMWT 070653Z AUTO 00000KT 10SM CLR M03/M05 A3023 RMK AO2
SLP246 T10281050





000
SAUS44 KLZK 070554
MTRMWT
METAR KMWT 070553Z AUTO 00000KT 10SM CLR M02/M05 A3026 RMK AO2
SLP254 T10171050 10094 21017 401441044 55006





000
SAUS44 KLZK 070554
MTRMWT
METAR KMWT 070553Z AUTO 00000KT 10SM CLR M02/M05 A3026 RMK AO2
SLP254 T10171050 10094 21017 401441044 55006





000
SAUS44 KLZK 070454
MTRMWT
METAR KMWT 070453Z AUTO 00000KT 10SM CLR M01/M06 A3025 RMK AO2
SLP254 T10061056





000
SAUS44 KLZK 070454
MTRMWT
METAR KMWT 070453Z AUTO 00000KT 10SM CLR M01/M06 A3025 RMK AO2
SLP254 T10061056





000
SAUS44 KLZK 070354
MTRMWT
METAR KMWT 070353Z AUTO 00000KT 10SM CLR M01/M04 A3027 RMK AO2
SLP260 T10061044





000
SAUS44 KLZK 070254
MTRMWT
METAR KMWT 070253Z AUTO 00000KT 10SM CLR 02/M06 A3028 RMK AO2 SLP264
T00171056 53004





000
SAUS44 KLZK 070254
MTRMWT
METAR KMWT 070253Z AUTO 00000KT 10SM CLR 02/M06 A3028 RMK AO2 SLP264
T00171056 53004





000
SAUS44 KLZK 070154
MTRMWT
METAR KMWT 070153Z AUTO 00000KT 10SM CLR 04/M06 A3027 RMK AO2 SLP264
T00391056





000
SAUS44 KLZK 070054
MTRMWT
METAR KMWT 070053Z AUTO 00000KT 10SM CLR 06/M07 A3026 RMK AO2 SLP259
T00611067





000
SAUS44 KLZK 070054
MTRMWT
METAR KMWT 070053Z AUTO 00000KT 10SM CLR 06/M07 A3026 RMK AO2 SLP259
T00611067





000
SAUS44 KLZK 062354
MTRMWT
METAR KMWT 062353Z AUTO 00000KT 10SM CLR 09/M07 A3026 RMK AO2 SLP258
T00941067 10144 20094 52001





000
SAUS44 KLZK 062354
MTRMWT
METAR KMWT 062353Z AUTO 00000KT 10SM CLR 09/M07 A3026 RMK AO2 SLP258
T00941067 10144 20094 52001





000
SAUS44 KLZK 062254
MTRMWT
METAR KMWT 062253Z AUTO 00000KT 10SM CLR 13/M09 A3026 RMK AO2 SLP255
T01331089





000
SAUS44 KLZK 062154
MTRMWT
METAR KMWT 062153Z AUTO VRB05KT 10SM CLR 14/M08 A3026 RMK AO2 SLP255
T01391083





000
SAUS44 KLZK 062054
MTRMWT
METAR KMWT 062053Z AUTO VRB05KT 10SM CLR 13/M08 A3026 RMK AO2 SLP254
T01331078 56022





000
SAUS44 KLZK 061954
MTRMWT
METAR KMWT 061953Z AUTO VRB03KT 10SM CLR 13/M09 A3027 RMK AO2 SLP258
T01281089





000
SAUS44 KLZK 061954
MTRMWT
METAR KMWT 061953Z AUTO VRB03KT 10SM CLR 13/M09 A3027 RMK AO2 SLP258
T01281089





000
SAUS44 KLZK 061854
MTRMWT
METAR KMWT 061853Z AUTO 00000KT 10SM CLR 12/M08 A3029 RMK AO2 SLP266
T01171083





000
SAUS44 KLZK 061854
MTRMWT
METAR KMWT 061853Z AUTO 00000KT 10SM CLR 12/M08 A3029 RMK AO2 SLP266
T01171083





000
SAUS44 KLZK 061754
MTRMWT
METAR KMWT 061753Z AUTO 00000KT 10SM CLR 12/M07 A3033 RMK AO2 SLP277
T01171072 10117 21044 50004





000
SAUS44 KLZK 061754
MTRMWT
METAR KMWT 061753Z AUTO 00000KT 10SM CLR 12/M07 A3033 RMK AO2 SLP277
T01171072 10117 21044 50004





000
SAUS44 KLZK 061654
MTRMWT
METAR KMWT 061653Z AUTO 00000KT 10SM CLR 08/M04 A3034 RMK AO2 SLP282
T00831044





000
SAUS44 KLZK 061654
MTRMWT
METAR KMWT 061653Z AUTO 00000KT 10SM CLR 08/M04 A3034 RMK AO2 SLP282
T00831044





000
SAUS44 KLZK 061554
MTRMWT
METAR KMWT 061553Z AUTO 00000KT 10SM CLR 04/M03 A3033 RMK AO2 SLP283
T00441033





000
SAUS44 KLZK 061454
MTRMWT
METAR KMWT 061453Z AUTO 00000KT 10SM CLR 01/M04 A3032 RMK AO2 SLP278
T00061044 53006





000
SAUS44 KLZK 061354
MTRMWT
METAR KMWT 061353Z AUTO 00000KT 10SM CLR M04/M07 A3030 RMK AO2
SLP277 T10441067





000
SAUS44 KLZK 061254
MTRMWT
METAR KMWT 061253Z AUTO 00000KT 10SM CLR M04/M07 A3030 RMK AO2
SLP275 T10391072





000
SAUS44 KLZK 061154
MTRMWT
METAR KMWT 061153Z AUTO 00000KT 10SM BKN100 M03/M07 A3030 RMK AO2
SLP270 T10331067 11022 21039 53004





000
SAUS44 KLZK 061154
MTRMWT
METAR KMWT 061153Z AUTO 00000KT 10SM BKN100 M03/M07 A3030 RMK AO2
SLP270 T10331067 11022 21039 53004





000
SAUS44 KLZK 061054
MTRMWT
METAR KMWT 061053Z AUTO 00000KT 10SM CLR M03/M07 A3028 RMK AO2
SLP265 T10331067





000
SAUS44 KLZK 061054
MTRMWT
METAR KMWT 061053Z AUTO 00000KT 10SM CLR M03/M07 A3028 RMK AO2
SLP265 T10331067





000
SAUS44 KLZK 060954
MTRMWT
METAR KMWT 060953Z AUTO 00000KT 10SM CLR M04/M07 A3030 RMK AO2
SLP269 T10391067





000
SAUS44 KLZK 060854
MTRMWT
METAR KMWT 060853Z AUTO 00000KT 10SM CLR M03/M06 A3029 RMK AO2
SLP264 T10281061 56009





000
SAUS44 KLZK 060854
MTRMWT
METAR KMWT 060853Z AUTO 00000KT 10SM CLR M03/M06 A3029 RMK AO2
SLP264 T10281061 56009





000
SAUS44 KLZK 060755
MTRMWT
METAR KMWT 060753Z AUTO 00000KT 10SM CLR M03/M06 A3030 RMK AO2
SLP268 T10281061





000
SAUS44 KLZK 060654
MTRMWT
METAR KMWT 060653Z AUTO 00000KT 10SM CLR M02/M06 A3030 RMK AO2
SLP269 T10221061





000
SAUS44 KLZK 060654
MTRMWT
METAR KMWT 060653Z AUTO 00000KT 10SM CLR M02/M06 A3030 RMK AO2
SLP269 T10221061





000
SAUS44 KLZK 060554
MTRMWT
METAR KMWT 060553Z AUTO 00000KT 10SM CLR M02/M07 A3031 RMK AO2
SLP274 T10221067 10078 21022 401221067 58003





000
SAUS44 KLZK 060554
MTRMWT
METAR KMWT 060553Z AUTO 00000KT 10SM CLR M02/M07 A3031 RMK AO2
SLP274 T10221067 10078 21022 401221067 58003





000
SAUS44 KLZK 060454
MTRMWT
METAR KMWT 060453Z AUTO 00000KT 10SM CLR M01/M07 A3032 RMK AO2
SLP278 T10111072





000
SAUS44 KLZK 060454
MTRMWT
METAR KMWT 060453Z AUTO 00000KT 10SM CLR M01/M07 A3032 RMK AO2
SLP278 T10111072





000
SAUS44 KLZK 060354
MTRMWT
METAR KMWT 060353Z AUTO 00000KT 10SM CLR M01/M07 A3032 RMK AO2
SLP280 T10111072





000
SAUS44 KLZK 060354
MTRMWT
METAR KMWT 060353Z AUTO 00000KT 10SM CLR M01/M07 A3032 RMK AO2
SLP280 T10111072





000
SAUS44 KLZK 060254
MTRMWT
METAR KMWT 060253Z AUTO 00000KT 10SM CLR 01/M08 A3032 RMK AO2 SLP281
T00061083 57001





000
SAUS44 KLZK 060254
MTRMWT
METAR KMWT 060253Z AUTO 00000KT 10SM CLR 01/M08 A3032 RMK AO2 SLP281
T00061083 57001





000
SAUS44 KLZK 060154
MTRMWT
METAR KMWT 060153Z AUTO 00000KT 10SM CLR 02/M08 A3032 RMK AO2 SLP284
T00171078





000
SAUS44 KLZK 060154
MTRMWT
METAR KMWT 060153Z AUTO 00000KT 10SM CLR 02/M08 A3032 RMK AO2 SLP284
T00171078





000
SAUS44 KLZK 060054
MTRMWT
METAR KMWT 060053Z AUTO 00000KT 10SM CLR 04/M08 A3032 RMK AO2 SLP282
T00441078





000
SAUS44 KLZK 060054
MTRMWT
METAR KMWT 060053Z AUTO 00000KT 10SM CLR 04/M08 A3032 RMK AO2 SLP282
T00441078





000
SAUS44 KLZK 060000
MTRMWT
METAR KMWT 052353Z AUTO 00000KT 10SM CLR 08/M09 A3032 RMK AO2 SLP280
T00831094 10122 20083 55007





000
SAUS44 KLZK 060000
MTRMWT
METAR KMWT 052353Z AUTO 00000KT 10SM CLR 08/M09 A3032 RMK AO2 SLP280
T00831094 10122 20083 55007





000
SAUS44 KLZK 052257
MTRMWT
METAR KMWT 052253Z AUTO VRB04KT 10SM CLR 11/M11 A3032 RMK AO2 SLP279
T01111106





000
SAUS44 KLZK 052257
MTRMWT
METAR KMWT 052253Z AUTO VRB04KT 10SM CLR 11/M11 A3032 RMK AO2 SLP279
T01111106





000
SAUS44 KLZK 052159
MTRMWT
METAR KMWT 052153Z AUTO VRB03KT 10SM CLR 12/M12 A3033 RMK AO2 SLP279
T01171117





000
SAUS44 KLZK 052057
MTRMWT
METAR KMWT 052053Z AUTO 17005KT 10SM CLR 12/M12 A3034 RMK AO2 SLP285
T01171117 56027





000
SAUS44 KLZK 052001
MTRMWT
METAR KMWT 051953Z AUTO 00000KT 10SM CLR 12/M09 A3036 RMK AO2 SLP290
T01171094





000
SAUS44 KLZK 051857
MTRMWT
METAR KMWT 051853Z AUTO VRB06KT 10SM CLR 11/M11 A3038 RMK AO2 SLP298
T01111106





000
SAUS44 KLZK 051857
MTRMWT
METAR KMWT 051853Z AUTO VRB06KT 10SM CLR 11/M11 A3038 RMK AO2 SLP298
T01111106





000
SAUS44 KLZK 051800
MTRMWT
METAR KMWT 051753Z AUTO VRB06KT 10SM CLR 10/M09 A3043 RMK AO2 SLP313
T01001094 10111 21067 58010





000
SAUS44 KLZK 051657
MTRMWT
METAR KMWT 051653Z AUTO 00000KT 10SM CLR 08/M06 A3046 RMK AO2 SLP324
T00781056





000
SAUS44 KLZK 051657
MTRMWT
METAR KMWT 051653Z AUTO 00000KT 10SM CLR 08/M06 A3046 RMK AO2 SLP324
T00781056





000
SAUS44 KLZK 051559
MTRMWT
METAR KMWT 051553Z AUTO 00000KT 10SM CLR 03/M06 A3046 RMK AO2 SLP327
T00331056





000
SAUS44 KLZK 051457
MTRMWT
METAR KMWT 051453Z AUTO 00000KT 10SM CLR M02/M06 A3046 RMK AO2
SLP329 T10221061 53013





000
SAUS44 KLZK 051457
MTRMWT
METAR KMWT 051453Z AUTO 00000KT 10SM CLR M02/M06 A3046 RMK AO2
SLP329 T10221061 53013





000
SAUS44 KLZK 051359
MTRMWT
METAR KMWT 051353Z AUTO 00000KT 10SM CLR M06/M08 A3044 RMK AO2
SLP323 T10611083





000
SAUS44 KLZK 051258
MTRMWT
METAR KMWT 051253Z AUTO 00000KT 10SM CLR M07/M08 A3044 RMK AO2
SLP322 T10671083





000
SAUS44 KLZK 051258
MTRMWT
METAR KMWT 051253Z AUTO 00000KT 10SM CLR M07/M08 A3044 RMK AO2
SLP322 T10671083





000
SAUS44 KLZK 051158
MTRMWT
METAR KMWT 051153Z AUTO 00000KT 10SM CLR M06/M08 A3042 RMK AO2
SLP314 T10611083 11028 21067 53001





000
SAUS44 KLZK 051158
MTRMWT
METAR KMWT 051153Z AUTO 00000KT 10SM CLR M06/M08 A3042 RMK AO2
SLP314 T10611083 11028 21067 53001





000
SAUS44 KLZK 051100
MTRMWT
METAR KMWT 051053Z AUTO 00000KT 10SM CLR M07/M09 A3040 RMK AO2
SLP307 T10671089





000
SAUS44 KLZK 051100
MTRMWT
METAR KMWT 051053Z AUTO 00000KT 10SM CLR M07/M09 A3040 RMK AO2
SLP307 T10671089





000
SAUS44 KLZK 050958
MTRMWT
METAR KMWT 050953Z AUTO 00000KT 10SM CLR M06/M08 A3039 RMK AO2
SLP303 T10561083





000
SAUS44 KLZK 050857
MTRMWT
METAR KMWT 050853Z AUTO 00000KT 10SM CLR M06/M08 A3041 RMK AO2
SLP310 T10561083 53006





000
SAUS44 KLZK 050857
MTRMWT
METAR KMWT 050853Z AUTO 00000KT 10SM CLR M06/M08 A3041 RMK AO2
SLP310 T10561083 53006





000
SAUS44 KLZK 050757
MTRMWT
METAR KMWT 050753Z AUTO 00000KT 10SM CLR M04/M08 A3040 RMK AO2
SLP306 T10441083





000
SAUS44 KLZK 050700
MTRMWT
METAR KMWT 050653Z AUTO 00000KT 10SM CLR M04/M08 A3039 RMK AO2
SLP301 T10441078





000
SAUS44 KLZK 050700
MTRMWT
METAR KMWT 050653Z AUTO 00000KT 10SM CLR M04/M08 A3039 RMK AO2
SLP301 T10441078





000
SAUS44 KLZK 050557
MTRMWT
METAR KMWT 050553Z AUTO 00000KT 10SM CLR M03/M08 A3040 RMK AO2
SLP304 T10281078 10067 21033 401061056 50006





000
SAUS44 KLZK 050557
MTRMWT
METAR KMWT 050553Z AUTO 00000KT 10SM CLR M03/M08 A3040 RMK AO2
SLP304 T10281078 10067 21033 401061056 50006





000
SAUS44 KLZK 050500
MTRMWT
METAR KMWT 050453Z AUTO 00000KT 10SM CLR M03/M07 A3040 RMK AO2
SLP307 T10281067





000
SAUS44 KLZK 050357
MTRMWT
METAR KMWT 050353Z AUTO 00000KT 10SM CLR M02/M07 A3040 RMK AO2
SLP307 T10221067





000
SAUS44 KLZK 050257
MTRMWT
METAR KMWT 050253Z AUTO 00000KT 10SM CLR M01/M07 A3038 RMK AO2
SLP300 T10111067 53005





000
SAUS44 KLZK 050157
MTRMWT
METAR KMWT 050153Z AUTO 00000KT 10SM CLR 01/M09 A3037 RMK AO2 SLP297
T00111089





000
SAUS44 KLZK 050157
MTRMWT
METAR KMWT 050153Z AUTO 00000KT 10SM CLR 01/M09 A3037 RMK AO2 SLP297
T00111089





000
SAUS44 KLZK 050100
MTRMWT
METAR KMWT 050053Z AUTO 00000KT 10SM CLR 03/M09 A3037 RMK AO2 SLP296
T00331094





000
SAUS44 KLZK 050100
MTRMWT
METAR KMWT 050053Z AUTO 00000KT 10SM CLR 03/M09 A3037 RMK AO2 SLP296
T00331094





000
SAUS44 KLZK 042354
MTRMWT
METAR KMWT 042353Z AUTO 33003KT 10SM CLR 07/M11 A3036 RMK AO2 SLP294
T00671106 10106 20067 53010





000
SAUS44 KLZK 042354
MTRMWT
METAR KMWT 042353Z AUTO 33003KT 10SM CLR 07/M11 A3036 RMK AO2 SLP294
T00671106 10106 20067 53010





000
SAUS44 KLZK 042254
MTRMWT
METAR KMWT 042253Z AUTO 34008KT 10SM CLR 09/M11 A3036 RMK AO2 SLP290
T00891106





000
SAUS44 KLZK 042154
MTRMWT
METAR KMWT 042153Z AUTO 34011G18KT 320V030 10SM CLR 10/M12 A3034 RMK
AO2 SLP283 T01001117





000
SAUS44 KLZK 042054
MTRMWT
METAR KMWT 042053Z AUTO 31009KT 10SM CLR 10/M11 A3033 RMK AO2 SLP281
T01001111 56017





000
SAUS44 KLZK 042054
MTRMWT
METAR KMWT 042053Z AUTO 31009KT 10SM CLR 10/M11 A3033 RMK AO2 SLP281
T01001111 56017





000
SAUS44 KLZK 041954
MTRMWT
METAR KMWT 041953Z AUTO VRB06G15KT 10SM CLR 09/M09 A3034 RMK AO2
SLP285 T00941094





000
SAUS44 KLZK 041854
MTRMWT
METAR KMWT 041853Z AUTO VRB06KT 10SM CLR 09/M09 A3036 RMK AO2 SLP289
T00891094





000
SAUS44 KLZK 041854
MTRMWT
METAR KMWT 041853Z AUTO VRB06KT 10SM CLR 09/M09 A3036 RMK AO2 SLP289
T00891094





000
SAUS44 KLZK 041754
MTRMWT
METAR KMWT 041753Z AUTO VRB03KT 10SM CLR 08/M09 A3039 RMK AO2 SLP299
T00781094 10078 21056 58002





000
SAUS44 KLZK 041654
MTRMWT
METAR KMWT 041653Z AUTO VRB04KT 10SM CLR 06/M07 A3041 RMK AO2 SLP307
T00611072





000
SAUS44 KLZK 041654
MTRMWT
METAR KMWT 041653Z AUTO VRB04KT 10SM CLR 06/M07 A3041 RMK AO2 SLP307
T00611072





000
SAUS44 KLZK 041554
MTRMWT
METAR KMWT 041553Z AUTO VRB04KT 10SM CLR 03/M07 A3040 RMK AO2 SLP308
T00331067





000
SAUS44 KLZK 041454
MTRMWT
METAR KMWT 041453Z AUTO 30003KT 10SM CLR 01/M06 A3039 RMK AO2 SLP303
T00111056 51024





000
SAUS44 KLZK 041454
MTRMWT
METAR KMWT 041453Z AUTO 30003KT 10SM CLR 01/M06 A3039 RMK AO2 SLP303
T00111056 51024





000
SAUS44 KLZK 041354
MTRMWT
METAR KMWT 041353Z AUTO 00000KT 10SM CLR M03/M07 A3038 RMK AO2
SLP299 T10281067





000
SAUS44 KLZK 041254
MTRMWT
METAR KMWT 041253Z AUTO 00000KT 10SM CLR M04/M07 A3035 RMK AO2
SLP288 T10391072





000
SAUS44 KLZK 041154
MTRMWT
METAR KMWT 041153Z AUTO 00000KT 10SM CLR M04/M07 A3032 RMK AO2
SLP278 T10441067 10006 21050 53012





000
SAUS44 KLZK 041154
MTRMWT
METAR KMWT 041153Z AUTO 00000KT 10SM CLR M04/M07 A3032 RMK AO2
SLP278 T10441067 10006 21050 53012





000
SAUS44 KLZK 041054
MTRMWT
METAR KMWT 041053Z AUTO 00000KT 10SM CLR M04/M07 A3030 RMK AO2
SLP272 T10441067





000
SAUS44 KLZK 041054
MTRMWT
METAR KMWT 041053Z AUTO 00000KT 10SM CLR M04/M07 A3030 RMK AO2
SLP272 T10441067





000
SAUS44 KLZK 040954
MTRMWT
METAR KMWT 040953Z AUTO 00000KT 10SM CLR M03/M06 A3029 RMK AO2
SLP265 T10331056





000
SAUS44 KLZK 040854
MTRMWT
METAR KMWT 040853Z AUTO 00000KT 10SM CLR M03/M06 A3028 RMK AO2
SLP265 T10331056 50005





    US Dept of Commerce
    National Oceanic and Atmospheric Administration
    National Weather Service
    1325 East West Highway
    Silver Spring, MD 20910
    Page Author: NWS Internet Services Team
Disclaimer
Information Quality
Credits
Glossary
Privacy Policy
Freedom of Information Act (FOIA)
About Us
Career Opportunities